createdAt,value
2019-04-16T00:04:22.266Z,40.72
2019-04-16T00:09:42.111Z,40.59
2019-04-16T00:14:44.555Z,40.46
2019-04-16T00:19:47.045Z,40.52
2019-04-16T00:24:49.522Z,40.81
2019-04-16T00:29:51.974Z,40.52
2019-04-16T00:34:54.447Z,40.68
2019-04-16T00:39:57.058Z,40.99
2019-04-16T00:44:59.529Z,40.77
2019-04-16T00:50:01.882Z,40.74
2019-04-16T00:55:05.756Z,41.08
2019-04-16T01:00:06.774Z,41.01
2019-04-16T01:05:09.244Z,40.92
2019-04-16T01:10:11.710Z,41.14
2019-04-16T01:15:14.212Z,41.03
2019-04-16T01:20:16.677Z,40.81
2019-04-16T01:25:20.252Z,40.82
2019-04-16T01:30:21.592Z,40.72
2019-04-16T01:35:30.288Z,40.75
2019-04-16T01:40:32.761Z,40.73
2019-04-16T01:45:35.235Z,40.68
2019-04-16T01:50:37.694Z,40.72
2019-04-16T01:55:42.479Z,40.77
2019-04-16T02:00:42.623Z,40.70
2019-04-16T02:05:45.117Z,40.70
2019-04-16T02:10:47.627Z,40.49
2019-04-16T02:15:50.634Z,40.48
2019-04-16T02:20:52.495Z,40.31
2019-04-16T02:25:54.964Z,40.40
2019-04-16T02:30:57.440Z,40.37
2019-04-16T02:35:59.912Z,40.52
2019-04-16T02:41:02.415Z,40.35
2019-04-16T02:46:04.981Z,40.54
2019-04-16T02:51:08.539Z,40.60
2019-04-16T02:56:19.317Z,40.58
2019-04-16T03:01:24.115Z,40.73
2019-04-16T03:06:26.588Z,40.78
2019-04-16T03:11:29.048Z,41.01
2019-04-16T03:16:37.706Z,40.78
2019-04-16T03:21:36.499Z,40.64
2019-04-16T03:26:38.962Z,40.79
2019-04-16T03:31:41.431Z,40.93
2019-04-16T03:36:43.896Z,41.12
2019-04-16T03:41:46.379Z,40.82
2019-04-16T03:46:48.823Z,40.94
2019-04-16T03:51:51.279Z,41.03
2019-04-16T03:56:53.736Z,41.08
2019-04-16T04:01:56.213Z,41.35
2019-04-16T04:06:58.679Z,41.40
2019-04-16T04:12:01.157Z,41.48
2019-04-16T04:17:06.681Z,41.58
2019-04-16T04:22:06.078Z,41.74
2019-04-16T04:27:13.077Z,42.02
2019-04-16T04:32:11.045Z,41.91
2019-04-16T04:37:13.484Z,42.09
2019-04-16T04:42:18.985Z,41.99
2019-04-16T04:47:20.060Z,42.43
2019-04-16T04:52:21.032Z,42.17
2019-04-16T04:57:23.560Z,42.11
2019-04-16T05:02:26.023Z,42.05
2019-04-16T05:07:29.344Z,42.41
2019-04-16T05:12:30.977Z,42.18
2019-04-16T05:17:35.431Z,42.31
2019-04-16T05:22:35.927Z,42.37
2019-04-16T05:27:41.274Z,42.23
2019-04-16T05:32:40.905Z,41.65
2019-04-16T05:37:43.364Z,41.36
2019-04-16T05:42:45.833Z,40.98
2019-04-16T05:47:48.987Z,41.34
2019-04-16T05:52:50.766Z,40.55
2019-04-16T05:57:57.932Z,40.57
2019-04-16T06:02:55.700Z,39.92
2019-04-16T06:07:58.159Z,39.17
2019-04-16T06:13:12.677Z,38.30
2019-04-16T06:18:24.386Z,38.01
2019-04-16T06:23:38.804Z,37.62
2019-04-16T06:28:59.973Z,37.62
2019-04-16T06:34:01.923Z,37.19
2019-04-16T06:39:13.461Z,36.76
2019-04-16T06:44:15.951Z,35.89
2019-04-16T06:49:39.399Z,35.22
2019-04-16T06:54:39.219Z,35.67
2019-04-16T07:00:54.596Z,36.05
2019-04-16T07:05:04.867Z,35.95
2019-04-16T07:10:07.321Z,35.86
2019-04-16T07:15:09.791Z,35.58
2019-04-16T07:20:13.527Z,35.25
2019-04-16T07:25:15.486Z,34.66
2019-04-16T07:30:19.768Z,33.90
2019-04-16T07:35:38.188Z,33.47
2019-04-16T07:40:58.780Z,32.56
2019-04-16T07:46:19.460Z,32.19
2019-04-16T07:51:27.910Z,32.16
2019-04-16T07:56:30.380Z,31.49
2019-04-16T08:01:32.839Z,30.85
2019-04-16T08:06:35.317Z,29.56
2019-04-16T08:11:37.798Z,26.54
2019-04-16T08:16:47.084Z,18.79
2019-04-16T08:21:44.266Z,13.86
2019-04-16T08:26:45.441Z,11.71
2019-04-16T08:31:47.725Z,10.31
2019-04-16T08:36:50.203Z,9.13
2019-04-16T08:41:53.109Z,8.32
2019-04-16T08:46:58.302Z,8.62
2019-04-16T08:51:57.658Z,8.87
2019-04-16T08:57:00.408Z,9.67
2019-04-16T09:02:02.603Z,8.32
2019-04-16T09:07:12.075Z,8.30
2019-04-16T09:12:09.308Z,7.58
2019-04-16T09:17:10.463Z,8.50
2019-04-16T09:22:16.181Z,7.59
2019-04-16T09:27:30.077Z,6.88
2019-04-16T09:32:48.075Z,7.10
2019-04-16T09:37:53.067Z,6.02
2019-04-16T09:42:55.588Z,5.48
2019-04-16T09:47:58.014Z,5.00
2019-04-16T09:53:02.050Z,5.53
2019-04-16T09:58:06.072Z,5.50
2019-04-16T10:03:23.577Z,5.08
2019-04-16T10:08:29.143Z,5.29
2019-04-16T10:13:31.823Z,5.32
2019-04-16T10:18:34.659Z,5.92
2019-04-16T10:23:39.575Z,5.77
2019-04-16T10:28:42.070Z,5.87
2019-04-16T10:33:44.535Z,5.23
2019-04-16T10:38:49.843Z,5.95
2019-04-16T10:43:57.861Z,5.75
2019-04-16T10:49:15.726Z,5.77
2019-04-16T10:54:20.864Z,5.46
2019-04-16T10:59:41.452Z,6.09
2019-04-16T11:04:44.030Z,7.46
2019-04-16T11:09:46.615Z,6.91
2019-04-16T11:14:48.998Z,7.04
2019-04-16T11:19:54.151Z,7.55
2019-04-16T11:24:53.983Z,8.84
2019-04-16T11:29:56.461Z,9.95
2019-04-16T11:34:58.909Z,12.79
2019-04-16T11:40:01.480Z,12.92
2019-04-16T11:45:03.886Z,11.90
2019-04-16T11:50:06.703Z,16.70
2019-04-16T11:55:08.927Z,18.16
2019-04-16T12:00:11.493Z,18.29
2019-04-16T12:05:13.936Z,19.32
2019-04-16T12:10:16.519Z,21.24
2019-04-16T12:15:21.575Z,17.06
2019-04-16T12:20:42.511Z,15.50
2019-04-16T12:25:50.897Z,16.07
2019-04-16T12:31:08.620Z,19.03
2019-04-16T12:36:14.596Z,20.15
2019-04-16T12:41:34.891Z,20.77
2019-04-16T12:46:40.272Z,22.02
2019-04-16T12:51:45.525Z,22.16
2019-04-16T12:57:03.263Z,22.82
2019-04-16T13:02:20.868Z,23.41
2019-04-16T13:07:41.321Z,24.57
2019-04-16T13:12:43.807Z,24.02
2019-04-16T13:18:04.718Z,25.04
2019-04-16T13:23:25.308Z,25.63
2019-04-16T13:28:27.773Z,26.63
2019-04-16T13:33:30.238Z,26.37
2019-04-16T13:38:41.923Z,26.16
2019-04-16T13:43:44.390Z,26.37
2019-04-16T13:48:46.893Z,26.49
2019-04-16T13:53:52.327Z,25.92
2019-04-16T13:58:56.071Z,26.33
2019-04-16T14:03:57.295Z,26.59
2019-04-16T14:08:59.761Z,27.89
2019-04-16T14:14:08.086Z,27.25
2019-04-16T14:19:09.344Z,27.46
2019-04-16T14:24:12.543Z,27.87
2019-04-16T14:29:13.950Z,27.33
2019-04-16T14:34:22.653Z,27.36
2019-04-16T14:39:25.148Z,27.19
2019-04-16T14:44:27.645Z,26.95
2019-04-16T14:49:30.148Z,26.89
2019-04-16T14:54:32.620Z,28.00
2019-04-16T14:59:37.851Z,28.75
2019-04-16T15:04:43.221Z,28.14
2019-04-16T15:09:51.833Z,29.25
2019-04-16T15:15:08.537Z,29.77
2019-04-16T15:20:11.972Z,30.80
2019-04-16T15:25:23.571Z,31.77
2019-04-16T15:30:44.243Z,31.96
2019-04-16T15:35:49.637Z,31.57
2019-04-16T15:40:52.120Z,32.07
2019-04-16T15:46:18.124Z,32.50
2019-04-16T15:51:27.668Z,32.80
2019-04-16T15:56:30.196Z,32.80
2019-04-16T16:01:35.485Z,33.01
2019-04-16T16:06:38.014Z,32.68
2019-04-16T16:11:51.186Z,32.79
2019-04-16T16:16:52.195Z,33.20
2019-04-16T16:21:54.689Z,33.21
2019-04-16T16:26:57.190Z,33.55
2019-04-16T16:31:59.694Z,33.60
2019-04-16T16:37:02.165Z,33.94
2019-04-16T16:42:04.644Z,34.04
2019-04-16T16:47:25.529Z,34.69
2019-04-16T16:52:28.042Z,34.91
2019-04-16T16:57:48.989Z,35.66
2019-04-16T17:02:51.464Z,35.48
2019-04-16T17:07:55.141Z,35.47
2019-04-16T17:12:56.539Z,36.11
2019-04-16T17:17:59.023Z,36.67
2019-04-16T17:23:01.520Z,37.13
2019-04-16T17:28:04.010Z,37.98
2019-04-16T17:33:06.505Z,38.22
2019-04-16T17:38:08.987Z,38.75
2019-04-16T17:43:14.285Z,39.53
2019-04-16T17:48:25.898Z,40.50
2019-04-16T17:53:43.542Z,40.74
2019-04-16T17:58:48.511Z,40.86
2019-04-16T18:03:51.158Z,41.13
2019-04-16T18:09:11.889Z,41.11
2019-04-16T18:14:32.549Z,41.43
2019-04-16T18:19:35.029Z,42.20
2019-04-16T18:24:55.672Z,42.44
2019-04-16T18:30:07.198Z,43.11
2019-04-16T18:35:09.584Z,42.25
2019-04-16T18:40:24.270Z,41.29
2019-04-16T18:45:29.410Z,41.60
2019-04-16T18:50:31.902Z,43.23
2019-04-16T18:55:34.376Z,44.47
2019-04-16T19:00:46.089Z,45.49
2019-04-16T19:05:48.608Z,48.47
2019-04-16T19:10:51.080Z,49.99
2019-04-16T19:15:53.577Z,50.79
2019-04-16T19:20:56.078Z,51.98
2019-04-16T19:25:58.613Z,52.25
2019-04-16T19:31:01.081Z,53.44
2019-04-16T19:36:03.560Z,53.59
2019-04-16T19:41:06.060Z,54.48
2019-04-16T19:46:08.732Z,55.08
2019-04-16T19:51:11.505Z,55.85
2019-04-16T19:56:15.542Z,56.83
2019-04-16T20:01:16.460Z,56.95
2019-04-16T20:06:18.934Z,58.20
2019-04-16T20:11:21.791Z,57.86
2019-04-16T20:16:23.916Z,58.05
2019-04-16T20:21:26.412Z,58.22
2019-04-16T20:26:29.319Z,59.20
2019-04-16T20:31:31.478Z,58.55
2019-04-16T20:36:33.964Z,59.05
2019-04-16T20:41:36.485Z,59.83
2019-04-16T20:46:38.974Z,60.21
2019-04-16T20:51:41.454Z,61.08
2019-04-16T20:56:43.948Z,61.27
2019-04-16T21:01:46.506Z,61.64
2019-04-16T21:06:48.985Z,62.13
2019-04-16T21:11:52.828Z,62.15
2019-04-16T21:16:54.547Z,62.16
2019-04-16T21:21:58.287Z,62.14
2019-04-16T21:26:59.093Z,62.05
2019-04-16T21:32:19.675Z,62.06
2019-04-16T21:37:31.364Z,62.00
2019-04-16T21:42:34.878Z,62.13
2019-04-16T21:47:36.343Z,62.70
2019-04-16T21:52:38.822Z,62.48
2019-04-16T21:57:42.839Z,62.28
2019-04-16T22:02:43.765Z,62.63
2019-04-16T22:07:46.231Z,62.84
2019-04-16T22:12:48.795Z,63.56
2019-04-16T22:17:51.167Z,63.19
2019-04-16T22:22:53.638Z,62.82
2019-04-16T22:27:59.616Z,63.40
2019-04-16T22:33:05.662Z,63.53
2019-04-16T22:38:04.635Z,64.11
2019-04-16T22:43:22.188Z,63.83
2019-04-16T22:48:24.685Z,64.34
2019-04-16T22:53:27.145Z,64.54
2019-04-16T22:58:47.613Z,64.51
2019-04-16T23:03:53.295Z,64.60
2019-04-16T23:08:53.278Z,64.30
2019-04-16T23:13:55.739Z,64.98
2019-04-16T23:18:58.211Z,65.20
2019-04-16T23:24:00.681Z,65.44
2019-04-16T23:29:03.145Z,65.55
2019-04-16T23:34:07.047Z,65.58
2019-04-16T23:39:08.073Z,65.72
2019-04-16T23:44:10.625Z,66.37
2019-04-16T23:49:31.436Z,66.77
2019-04-16T23:54:46.091Z,68.28
2019-04-16T23:59:54.676Z,69.46
